sensor_id;sensor_type;location;lat;lon;timestamp;pressure;altitude;pressure_sealevel;temperature;humidity
21824;BME280;11074;48.596;9.238;2023-03-19T00:00:07;97944.78;;;11.49;73.41
21824;BME280;11074;48.596;9.238;2023-03-19T00:02:33;97948.78;;;11.52;73.15
21824;BME280;11074;48.596;9.238;2023-03-19T00:04:59;97947.69;;;11.53;73.19
21824;BME280;11074;48.596;9.238;2023-03-19T00:07:25;97947.16;;;11.51;73.13
21824;BME280;11074;48.596;9.238;2023-03-19T00:09:51;97952.53;;;11.51;73.48
21824;BME280;11074;48.596;9.238;2023-03-19T00:12:17;97950.91;;;11.50;72.47
21824;BME280;11074;48.596;9.238;2023-03-19T00:14:42;97945.84;;;11.53;73.07
21824;BME280;11074;48.596;9.238;2023-03-19T00:17:08;97952.00;;;11.54;72.21
21824;BME280;11074;48.596;9.238;2023-03-19T00:19:34;97953.59;;;11.50;72.30
21824;BME280;11074;48.596;9.238;2023-03-19T00:22:00;97959.69;;;11.35;72.61
21824;BME280;11074;48.596;9.238;2023-03-19T00:24:26;97962.59;;;11.29;73.61
21824;BME280;11074;48.596;9.238;2023-03-19T00:26:52;97953.22;;;11.26;73.69
21824;BME280;11074;48.596;9.238;2023-03-19T00:29:17;97958.34;;;11.33;73.58
21824;BME280;11074;48.596;9.238;2023-03-19T00:31:43;97956.72;;;11.27;73.32
21824;BME280;11074;48.596;9.238;2023-03-19T00:34:09;97954.84;;;11.27;73.49
21824;BME280;11074;48.596;9.238;2023-03-19T00:36:36;97955.09;;;11.26;73.64
21824;BME280;11074;48.596;9.238;2023-03-19T00:39:03;97961.53;;;11.25;73.71
21824;BME280;11074;48.596;9.238;2023-03-19T00:41:29;97966.59;;;11.21;73.47
21824;BME280;11074;48.596;9.238;2023-03-19T00:43:57;97965.50;;;11.17;73.63
21824;BME280;11074;48.596;9.238;2023-03-19T00:46:24;97971.13;;;11.21;73.66
21824;BME280;11074;48.596;9.238;2023-03-19T00:48:51;97966.59;;;11.21;73.69
21824;BME280;11074;48.596;9.238;2023-03-19T00:51:21;97957.50;;;11.22;74.20
21824;BME280;11074;48.596;9.238;2023-03-19T00:53:47;97969.81;;;11.23;73.72
21824;BME280;11074;48.596;9.238;2023-03-19T00:56:14;97971.72;;;11.28;74.08
21824;BME280;11074;48.596;9.238;2023-03-19T00:58:43;97978.38;;;11.20;73.70
21824;BME280;11074;48.596;9.238;2023-03-19T01:01:12;97975.44;;;11.22;74.37
21824;BME280;11074;48.596;9.238;2023-03-19T01:03:38;97973.28;;;11.24;74.00
21824;BME280;11074;48.596;9.238;2023-03-19T01:06:05;97977.59;;;11.25;74.22
21824;BME280;11074;48.596;9.238;2023-03-19T01:08:31;97981.09;;;11.30;73.77
21824;BME280;11074;48.596;9.238;2023-03-19T01:11:13;97988.00;;;11.26;72.97
21824;BME280;11074;48.596;9.238;2023-03-19T01:13:40;97993.13;;;11.28;73.49
21824;BME280;11074;48.596;9.238;2023-03-19T01:16:07;97986.72;;;11.34;73.76
21824;BME280;11074;48.596;9.238;2023-03-19T01:18:33;97988.06;;;11.36;73.55
21824;BME280;11074;48.596;9.238;2023-03-19T01:20:59;98003.56;;;11.34;73.66
21824;BME280;11074;48.596;9.238;2023-03-19T01:23:25;98014.00;;;11.31;73.38
21824;BME280;11074;48.596;9.238;2023-03-19T01:25:51;98012.13;;;11.31;73.79
21824;BME280;11074;48.596;9.238;2023-03-19T01:28:17;98019.91;;;11.33;72.99
21824;BME280;11074;48.596;9.238;2023-03-19T01:30:43;98025.78;;;11.30;73.15
21824;BME280;11074;48.596;9.238;2023-03-19T01:33:09;98017.22;;;11.28;72.60
21824;BME280;11074;48.596;9.238;2023-03-19T01:35:35;98027.06;;;11.22;72.42
21824;BME280;11074;48.596;9.238;2023-03-19T01:38:00;98018.78;;;11.29;72.64
21824;BME280;11074;48.596;9.238;2023-03-19T01:40:26;98019.38;;;11.31;72.09
21824;BME280;11074;48.596;9.238;2023-03-19T01:43:11;98018.56;;;11.30;72.10
21824;BME280;11074;48.596;9.238;2023-03-19T01:45:40;98023.09;;;11.30;72.36
21824;BME280;11074;48.596;9.238;2023-03-19T01:48:46;98017.22;;;11.28;72.14
21824;BME280;11074;48.596;9.238;2023-03-19T01:51:17;98016.94;;;11.29;72.39
21824;BME280;11074;48.596;9.238;2023-03-19T01:53:53;98001.16;;;11.33;71.91
21824;BME280;11074;48.596;9.238;2023-03-19T01:56:26;98018.03;;;11.28;71.92
21824;BME280;11074;48.596;9.238;2023-03-19T01:58:58;98017.44;;;11.21;72.77
21824;BME280;11074;48.596;9.238;2023-03-19T02:01:27;98023.63;;;11.27;72.49
21824;BME280;11074;48.596;9.238;2023-03-19T02:03:58;98019.03;;;11.22;72.21
21824;BME280;11074;48.596;9.238;2023-03-19T02:06:24;98024.66;;;11.26;72.65
21824;BME280;11074;48.596;9.238;2023-03-19T02:08:51;98028.44;;;11.25;72.16
21824;BME280;11074;48.596;9.238;2023-03-19T02:11:18;98025.72;;;11.20;73.01
21824;BME280;11074;48.596;9.238;2023-03-19T02:13:44;98022.19;;;11.09;74.23
21824;BME280;11074;48.596;9.238;2023-03-19T02:16:10;98009.84;;;11.03;74.62
21824;BME280;11074;48.596;9.238;2023-03-19T02:18:36;98025.09;;;11.08;74.92
21824;BME280;11074;48.596;9.238;2023-03-19T02:21:14;98028.91;;;11.17;74.73
21824;BME280;11074;48.596;9.238;2023-03-19T02:24:08;98029.22;;;11.25;76.04
21824;BME280;11074;48.596;9.238;2023-03-19T02:26:38;98028.66;;;11.23;75.96
21824;BME280;11074;48.596;9.238;2023-03-19T02:29:04;98034.31;;;11.27;75.61
21824;BME280;11074;48.596;9.238;2023-03-19T02:31:30;98042.03;;;11.23;76.07
21824;BME280;11074;48.596;9.238;2023-03-19T02:34:05;98046.56;;;11.18;75.49
21824;BME280;11074;48.596;9.238;2023-03-19T02:36:41;98055.13;;;11.15;75.93
21824;BME280;11074;48.596;9.238;2023-03-19T02:39:23;98056.72;;;11.16;76.06
21824;BME280;11074;48.596;9.238;2023-03-19T02:41:53;98058.31;;;11.12;78.05
21824;BME280;11074;48.596;9.238;2023-03-19T02:44:19;98056.69;;;11.11;78.49
21824;BME280;11074;48.596;9.238;2023-03-19T02:46:45;98054.56;;;11.13;79.75
21824;BME280;11074;48.596;9.238;2023-03-19T02:49:11;98063.13;;;11.10;80.25
21824;BME280;11074;48.596;9.238;2023-03-19T02:51:36;98061.25;;;11.15;80.27
21824;BME280;11074;48.596;9.238;2023-03-19T02:54:03;98042.81;;;11.14;81.00
21824;BME280;11074;48.596;9.238;2023-03-19T02:56:30;98052.44;;;11.15;80.17
21824;BME280;11074;48.596;9.238;2023-03-19T02:58:56;98051.88;;;11.13;80.83
21824;BME280;11074;48.596;9.238;2023-03-19T03:01:21;98049.94;;;10.98;82.64
21824;BME280;11074;48.596;9.238;2023-03-19T03:03:47;98051.94;;;10.81;84.58
21824;BME280;11074;48.596;9.238;2023-03-19T03:06:13;98048.94;;;10.72;85.36
21824;BME280;11074;48.596;9.238;2023-03-19T03:08:39;98053.69;;;10.65;86.52
21824;BME280;11074;48.596;9.238;2023-03-19T03:11:05;98050.84;;;10.77;84.92
21824;BME280;11074;48.596;9.238;2023-03-19T03:13:30;98050.34;;;10.80;84.58
21824;BME280;11074;48.596;9.238;2023-03-19T03:15:56;98059.16;;;10.80;85.33
21824;BME280;11074;48.596;9.238;2023-03-19T03:18:22;98048.72;;;10.79;85.76
21824;BME280;11074;48.596;9.238;2023-03-19T03:20:48;98053.97;;;10.69;86.42
21824;BME280;11074;48.596;9.238;2023-03-19T03:23:13;98064.75;;;10.79;86.26
21824;BME280;11074;48.596;9.238;2023-03-19T03:25:39;98053.25;;;10.78;87.24
21824;BME280;11074;48.596;9.238;2023-03-19T03:28:05;98053.44;;;10.67;87.65
21824;BME280;11074;48.596;9.238;2023-03-19T03:30:31;98051.03;;;10.70;88.45
21824;BME280;11074;48.596;9.238;2023-03-19T03:32:57;98054.88;;;10.79;88.00
21824;BME280;11074;48.596;9.238;2023-03-19T03:35:22;98053.47;;;10.72;87.67
21824;BME280;11074;48.596;9.238;2023-03-19T03:37:50;98053.28;;;10.52;88.80
21824;BME280;11074;48.596;9.238;2023-03-19T03:40:16;98060.09;;;10.64;88.59
21824;BME280;11074;48.596;9.238;2023-03-19T03:42:43;98054.56;;;10.76;87.82
21824;BME280;11074;48.596;9.238;2023-03-19T03:45:09;98062.13;;;10.84;87.35
21824;BME280;11074;48.596;9.238;2023-03-19T03:47:36;98069.91;;;10.85;86.71
21824;BME280;11074;48.596;9.238;2023-03-19T03:50:03;98067.22;;;10.85;86.72
21824;BME280;11074;48.596;9.238;2023-03-19T03:52:30;98072.31;;;10.87;86.54
21824;BME280;11074;48.596;9.238;2023-03-19T03:54:59;98072.84;;;10.89;87.36
21824;BME280;11074;48.596;9.238;2023-03-19T03:57:25;98068.00;;;10.86;87.29
21824;BME280;11074;48.596;9.238;2023-03-19T03:59:52;98061.59;;;10.87;88.04
21824;BME280;11074;48.596;9.238;2023-03-19T04:02:18;98062.66;;;10.86;87.28
21824;BME280;11074;48.596;9.238;2023-03-19T04:04:44;98068.31;;;10.89;86.76
21824;BME280;11074;48.596;9.238;2023-03-19T04:07:09;98068.31;;;10.89;86.73
21824;BME280;11074;48.596;9.238;2023-03-19T04:09:35;98072.31;;;10.87;86.85
21824;BME280;11074;48.596;9.238;2023-03-19T04:12:01;98075.75;;;10.82;86.76
21824;BME280;11074;48.596;9.238;2023-03-19T04:14:28;98083.22;;;10.80;87.07
21824;BME280;11074;48.596;9.238;2023-03-19T04:16:53;98083.22;;;10.80;87.21
21824;BME280;11074;48.596;9.238;2023-03-19T04:19:19;98085.09;;;10.80;87.64
21824;BME280;11074;48.596;9.238;2023-03-19T04:21:45;98078.13;;;10.79;87.08
21824;BME280;11074;48.596;9.238;2023-03-19T04:24:11;98077.81;;;10.75;87.23
21824;BME280;11074;48.596;9.238;2023-03-19T04:26:38;98074.88;;;10.72;87.10
21824;BME280;11074;48.596;9.238;2023-03-19T04:29:05;98082.03;;;10.66;88.01
21824;BME280;11074;48.596;9.238;2023-03-19T04:31:32;98083.41;;;10.69;87.36
21824;BME280;11074;48.596;9.238;2023-03-19T04:33:58;98085.00;;;10.70;87.53
21824;BME280;11074;48.596;9.238;2023-03-19T04:36:25;98081.81;;;10.73;87.82
21824;BME280;11074;48.596;9.238;2023-03-19T04:38:50;98082.91;;;10.72;87.59
21824;BME280;11074;48.596;9.238;2023-03-19T04:41:17;98079.13;;;10.73;88.06
21824;BME280;11074;48.596;9.238;2023-03-19T04:43:42;98081.56;;;10.74;87.84
21824;BME280;11074;48.596;9.238;2023-03-19T04:46:08;98082.38;;;10.75;87.89
21824;BME280;11074;48.596;9.238;2023-03-19T04:48:34;98082.91;;;10.72;87.41
21824;BME280;11074;48.596;9.238;2023-03-19T04:51:01;98082.06;;;10.71;87.91
21824;BME280;11074;48.596;9.238;2023-03-19T04:53:28;98092.28;;;10.74;87.29
21824;BME280;11074;48.596;9.238;2023-03-19T04:55:55;98083.44;;;10.74;88.06
21824;BME280;11074;48.596;9.238;2023-03-19T04:58:21;98086.97;;;10.79;87.25
21824;BME280;11074;48.596;9.238;2023-03-19T05:00:47;98093.94;;;10.80;87.63
21824;BME280;11074;48.596;9.238;2023-03-19T05:03:14;98095.78;;;10.80;87.24
21824;BME280;11074;48.596;9.238;2023-03-19T05:05:41;98096.34;;;10.82;87.11
21824;BME280;11074;48.596;9.238;2023-03-19T05:08:08;98103.31;;;10.83;87.36
21824;BME280;11074;48.596;9.238;2023-03-19T05:10:35;98110.25;;;10.84;87.58
21824;BME280;11074;48.596;9.238;2023-03-19T05:13:02;98109.72;;;10.82;87.42
21824;BME280;11074;48.596;9.238;2023-03-19T05:15:29;98109.97;;;10.80;87.68
21824;BME280;11074;48.596;9.238;2023-03-19T05:17:55;98117.19;;;10.80;88.04
21824;BME280;11074;48.596;9.238;2023-03-19T05:20:21;98120.66;;;10.80;87.55
21824;BME280;11074;48.596;9.238;2023-03-19T05:22:48;98118.78;;;10.81;87.36
21824;BME280;11074;48.596;9.238;2023-03-19T05:25:14;98116.38;;;10.79;87.30
21824;BME280;11074;48.596;9.238;2023-03-19T05:27:39;98115.00;;;10.77;88.72
21824;BME280;11074;48.596;9.238;2023-03-19T05:30:07;98121.72;;;10.79;89.50
21824;BME280;11074;48.596;9.238;2023-03-19T05:32:33;98120.66;;;10.80;88.64
21824;BME280;11074;48.596;9.238;2023-03-19T05:34:58;98115.16;;;10.65;89.31
21824;BME280;11074;48.596;9.238;2023-03-19T05:37:24;98120.69;;;10.54;89.82
21824;BME280;11074;48.596;9.238;2023-03-19T05:39:51;98128.72;;;10.54;90.02
21824;BME280;11074;48.596;9.238;2023-03-19T05:42:16;98114.34;;;10.65;90.98
21824;BME280;11074;48.596;9.238;2023-03-19T05:44:42;98119.47;;;10.66;90.24
21824;BME280;11074;48.596;9.238;2023-03-19T05:47:10;98113.63;;;10.69;90.49
21824;BME280;11074;48.596;9.238;2023-03-19T05:49:37;98114.41;;;10.70;89.91
21824;BME280;11074;48.596;9.238;2023-03-19T05:52:03;98115.72;;;10.67;89.84
21824;BME280;11074;48.596;9.238;2023-03-19T05:54:29;98110.94;;;10.69;90.22
21824;BME280;11074;48.596;9.238;2023-03-19T05:56:54;98116.34;;;10.74;89.50
21824;BME280;11074;48.596;9.238;2023-03-19T05:59:20;98128.03;;;10.68;89.07
21824;BME280;11074;48.596;9.238;2023-03-19T06:01:47;98147.00;;;10.67;88.60
21824;BME280;11074;48.596;9.238;2023-03-19T06:04:12;98139.72;;;10.62;89.85
21824;BME280;11074;48.596;9.238;2023-03-19T06:06:38;98124.19;;;10.59;89.31
21824;BME280;11074;48.596;9.238;2023-03-19T06:09:04;98135.19;;;10.63;90.05
21824;BME280;11074;48.596;9.238;2023-03-19T06:11:29;98146.47;;;10.70;90.18
21824;BME280;11074;48.596;9.238;2023-03-19T06:13:56;98143.56;;;10.71;89.77
21824;BME280;11074;48.596;9.238;2023-03-19T06:16:23;98143.03;;;10.69;90.35
21824;BME280;11074;48.596;9.238;2023-03-19T06:18:48;98148.38;;;10.69;89.66
21824;BME280;11074;48.596;9.238;2023-03-19T06:21:14;98148.09;;;10.71;89.92
21824;BME280;11074;48.596;9.238;2023-03-19T06:23:40;98153.72;;;10.69;89.34
21824;BME280;11074;48.596;9.238;2023-03-19T06:26:06;98156.44;;;10.74;90.11
21824;BME280;11074;48.596;9.238;2023-03-19T06:28:32;98153.50;;;10.76;89.69
21824;BME280;11074;48.596;9.238;2023-03-19T06:30:58;98163.38;;;10.75;89.54
21824;BME280;11074;48.596;9.238;2023-03-19T06:33:24;98168.50;;;10.77;88.85
21824;BME280;11074;48.596;9.238;2023-03-19T06:35:52;98158.34;;;10.79;89.77
21824;BME280;11074;48.596;9.238;2023-03-19T06:38:18;98170.41;;;10.81;90.11
21824;BME280;11074;48.596;9.238;2023-03-19T06:40:44;98163.47;;;10.80;89.49
21824;BME280;11074;48.596;9.238;2023-03-19T06:43:09;98173.13;;;10.86;90.01
21824;BME280;11074;48.596;9.238;2023-03-19T06:45:35;98166.97;;;10.86;89.62
21824;BME280;11074;48.596;9.238;2023-03-19T06:48:01;98172.88;;;10.88;89.48
21824;BME280;11074;48.596;9.238;2023-03-19T06:50:27;98170.44;;;10.86;89.07
21824;BME280;11074;48.596;9.238;2023-03-19T06:52:52;98170.72;;;10.85;90.15
21824;BME280;11074;48.596;9.238;2023-03-19T06:55:18;98158.88;;;10.81;90.50
21824;BME280;11074;48.596;9.238;2023-03-19T06:57:50;98166.69;;;10.82;90.02
21824;BME280;11074;48.596;9.238;2023-03-19T07:00:16;98165.50;;;10.73;90.83
21824;BME280;11074;48.596;9.238;2023-03-19T07:02:43;98160.22;;;10.78;90.43
21824;BME280;11074;48.596;9.238;2023-03-19T07:05:09;98161.31;;;10.82;90.47
21824;BME280;11074;48.596;9.238;2023-03-19T07:07:35;98160.59;;;10.92;89.52
21824;BME280;11074;48.596;9.238;2023-03-19T07:10:01;98152.88;;;10.95;89.26
21824;BME280;11074;48.596;9.238;2023-03-19T07:12:27;98156.38;;;10.96;89.85
21824;BME280;11074;48.596;9.238;2023-03-19T07:14:53;98161.50;;;11.03;89.20
21824;BME280;11074;48.596;9.238;2023-03-19T07:17:21;98162.31;;;11.03;88.36
21824;BME280;11074;48.596;9.238;2023-03-19T07:19:47;98166.06;;;11.07;88.29
21824;BME280;11074;48.596;9.238;2023-03-19T07:22:13;98173.81;;;11.04;88.71
21824;BME280;11074;48.596;9.238;2023-03-19T07:24:39;98163.66;;;11.06;89.97
21824;BME280;11074;48.596;9.238;2023-03-19T07:27:05;98164.94;;;10.98;90.27
21824;BME280;11074;48.596;9.238;2023-03-19T07:29:31;98161.41;;;10.92;90.80
21824;BME280;11074;48.596;9.238;2023-03-19T07:31:57;98161.41;;;10.92;90.80
21824;BME280;11074;48.596;9.238;2023-03-19T07:34:22;98172.97;;;10.98;90.36
21824;BME280;11074;48.596;9.238;2023-03-19T07:36:48;98173.19;;;10.96;90.51
21824;BME280;11074;48.596;9.238;2023-03-19T07:39:14;98171.09;;;10.99;91.06
21824;BME280;11074;48.596;9.238;2023-03-19T07:41:40;98168.75;;;11.07;90.81
21824;BME280;11074;48.596;9.238;2023-03-19T07:44:05;98169.91;;;11.16;89.70
21824;BME280;11074;48.596;9.238;2023-03-19T07:46:31;98167.53;;;11.20;88.39
21824;BME280;11074;48.596;9.238;2023-03-19T07:48:57;98176.69;;;11.29;87.99
21824;BME280;11074;48.596;9.238;2023-03-19T07:51:23;98172.50;;;11.38;89.33
21824;BME280;11074;48.596;9.238;2023-03-19T07:53:48;98165.28;;;11.38;90.20
21824;BME280;11074;48.596;9.238;2023-03-19T07:56:14;98176.56;;;11.45;88.71
21824;BME280;11074;48.596;9.238;2023-03-19T07:58:40;98164.56;;;11.53;88.08
21824;BME280;11074;48.596;9.238;2023-03-19T08:01:07;98164.34;;;11.60;87.55
21824;BME280;11074;48.596;9.238;2023-03-19T08:03:32;98160.38;;;11.67;85.80
21824;BME280;11074;48.596;9.238;2023-03-19T08:05:58;98170.09;;;11.73;87.01
21824;BME280;11074;48.596;9.238;2023-03-19T08:08:24;98165.81;;;11.77;85.58
21824;BME280;11074;48.596;9.238;2023-03-19T08:10:53;98164.22;;;11.76;88.25
21824;BME280;11074;48.596;9.238;2023-03-19T08:13:19;98170.66;;;11.85;87.41
21824;BME280;11074;48.596;9.238;2023-03-19T08:15:45;98163.47;;;11.91;85.99
21824;BME280;11074;48.596;9.238;2023-03-19T08:18:10;98170.47;;;11.92;87.23
21824;BME280;11074;48.596;9.238;2023-03-19T08:20:36;98167.47;;;11.88;88.64
21824;BME280;11074;48.596;9.238;2023-03-19T08:23:02;98167.22;;;11.95;86.23
21824;BME280;11074;48.596;9.238;2023-03-19T08:25:28;98164.59;;;12.00;85.74
21824;BME280;11074;48.596;9.238;2023-03-19T08:27:58;98163.31;;;12.12;84.31
21824;BME280;11074;48.596;9.238;2023-03-19T08:30:24;98167.09;;;12.22;86.35
21824;BME280;11074;48.596;9.238;2023-03-19T08:32:50;98148.91;;;12.29;87.29
21824;BME280;11074;48.596;9.238;2023-03-19T08:35:16;98155.91;;;12.35;87.51
21824;BME280;11074;48.596;9.238;2023-03-19T08:37:42;98151.06;;;12.37;86.07
21824;BME280;11074;48.596;9.238;2023-03-19T08:40:09;98157.78;;;12.44;85.63
21824;BME280;11074;48.596;9.238;2023-03-19T08:42:35;98163.16;;;12.49;86.01
21824;BME280;11074;48.596;9.238;2023-03-19T08:45:03;98166.94;;;12.53;85.61
21824;BME280;11074;48.596;9.238;2023-03-19T08:47:29;98167.72;;;12.59;85.88
21824;BME280;11074;48.596;9.238;2023-03-19T08:49:55;98155.16;;;12.64;86.15
21824;BME280;11074;48.596;9.238;2023-03-19T08:52:21;98158.66;;;12.70;85.70
21824;BME280;11074;48.596;9.238;2023-03-19T08:54:46;98156.53;;;12.72;86.10
21824;BME280;11074;48.596;9.238;2023-03-19T08:57:12;98168.03;;;12.77;86.15
21824;BME280;11074;48.596;9.238;2023-03-19T08:59:38;98167.50;;;12.75;87.73
21824;BME280;11074;48.596;9.238;2023-03-19T09:02:04;98158.41;;;12.82;87.38
21824;BME280;11074;48.596;9.238;2023-03-19T09:04:29;98156.81;;;12.91;87.92
21824;BME280;11074;48.596;9.238;2023-03-19T09:06:55;98160.28;;;12.96;86.83
21824;BME280;11074;48.596;9.238;2023-03-19T09:09:23;98166.22;;;13.03;86.48
21824;BME280;11074;48.596;9.238;2023-03-19T09:11:49;98169.75;;;13.09;87.37
21824;BME280;11074;48.596;9.238;2023-03-19T09:14:15;98162.75;;;13.18;88.01
21824;BME280;11074;48.596;9.238;2023-03-19T09:16:42;98156.06;;;13.30;87.24
21824;BME280;11074;48.596;9.238;2023-03-19T09:19:09;98158.44;;;13.37;85.13
21824;BME280;11074;48.596;9.238;2023-03-19T09:21:35;98163.28;;;13.40;86.63
21824;BME280;11074;48.596;9.238;2023-03-19T09:24:02;98168.13;;;13.43;84.88
21824;BME280;11074;48.596;9.238;2023-03-19T09:26:28;98151.72;;;13.45;84.24
21824;BME280;11074;48.596;9.238;2023-03-19T09:28:54;98157.09;;;13.34;84.11
21824;BME280;11074;48.596;9.238;2023-03-19T09:31:20;98151.47;;;13.31;83.87
21824;BME280;11074;48.596;9.238;2023-03-19T09:33:46;98159.28;;;13.32;82.53
21824;BME280;11074;48.596;9.238;2023-03-19T09:36:11;98159.25;;;13.38;82.93
21824;BME280;11074;48.596;9.238;2023-03-19T09:38:37;98157.38;;;13.48;81.87
21824;BME280;11074;48.596;9.238;2023-03-19T09:46:49;98147.63;;;13.82;73.16
21824;BME280;11074;48.596;9.238;2023-03-19T09:50:00;98137.06;;;14.06;72.19
21824;BME280;11074;48.596;9.238;2023-03-19T09:57:49;98141.00;;;14.39;67.62
21824;BME280;11074;48.596;9.238;2023-03-19T10:00:27;98133.09;;;14.57;65.88
21824;BME280;11074;48.596;9.238;2023-03-19T10:03:09;98135.38;;;14.79;65.86
21824;BME280;11074;48.596;9.238;2023-03-19T10:14:19;98134.41;;;14.99;60.13
21824;BME280;11074;48.596;9.238;2023-03-19T10:16:51;98129.63;;;14.91;60.13
21824;BME280;11074;48.596;9.238;2023-03-19T10:19:52;98122.66;;;14.90;60.20
21824;BME280;11074;48.596;9.238;2023-03-19T10:22:37;98119.91;;;14.95;60.39
21824;BME280;11074;48.596;9.238;2023-03-19T10:25:12;98123.41;;;14.95;60.54
21824;BME280;11074;48.596;9.238;2023-03-19T10:27:45;98112.31;;;15.02;60.16
21824;BME280;11074;48.596;9.238;2023-03-19T10:30:18;98118.72;;;15.11;59.87
21824;BME280;11074;48.596;9.238;2023-03-19T10:32:52;98115.66;;;15.17;58.67
21824;BME280;11074;48.596;9.238;2023-03-19T10:35:25;98111.66;;;15.15;57.96
21824;BME280;11074;48.596;9.238;2023-03-19T10:38:18;98106.53;;;15.18;57.67
21824;BME280;11074;48.596;9.238;2023-03-19T10:43:40;98094.38;;;15.21;56.47
21824;BME280;11074;48.596;9.238;2023-03-19T10:46:12;98097.25;;;15.30;56.57
21824;BME280;11074;48.596;9.238;2023-03-19T10:48:44;98091.78;;;15.40;56.99
21824;BME280;11074;48.596;9.238;2023-03-19T10:51:15;98095.50;;;15.49;56.81
21824;BME280;11074;48.596;9.238;2023-03-19T10:53:43;98088.75;;;15.46;56.48
21824;BME280;11074;48.596;9.238;2023-03-19T10:56:25;98086.53;;;15.53;57.12
21824;BME280;11074;48.596;9.238;2023-03-19T10:59:04;98088.38;;;15.58;57.12
21824;BME280;11074;48.596;9.238;2023-03-19T11:01:39;98092.34;;;15.65;56.60
21824;BME280;11074;48.596;9.238;2023-03-19T11:04:18;98097.34;;;15.77;57.16
21824;BME280;11074;48.596;9.238;2023-03-19T11:06:54;98089.13;;;15.87;56.39
21824;BME280;11074;48.596;9.238;2023-03-19T11:09:27;98087.91;;;15.98;56.03
21824;BME280;11074;48.596;9.238;2023-03-19T11:12:53;98090.72;;;16.12;55.71
21824;BME280;11074;48.596;9.238;2023-03-19T11:14:56;98084.69;;;16.20;55.89
21824;BME280;11074;48.596;9.238;2023-03-19T11:17:39;98091.28;;;16.09;54.85
21824;BME280;11074;48.596;9.238;2023-03-19T11:20:34;98093.38;;;15.93;54.40
21824;BME280;11074;48.596;9.238;2023-03-19T11:23:05;98091.25;;;15.90;53.18
21824;BME280;11074;48.596;9.238;2023-03-19T11:25:46;98087.78;;;16.08;53.80
21824;BME280;11074;48.596;9.238;2023-03-19T11:28:15;98085.41;;;16.25;53.85
21824;BME280;11074;48.596;9.238;2023-03-19T11:42:58;98064.78;;;16.72;51.70
21824;BME280;11074;48.596;9.238;2023-03-19T11:45:53;98072.88;;;16.72;51.29
21824;BME280;11074;48.596;9.238;2023-03-19T11:48:49;98064.63;;;16.63;51.25
21824;BME280;11074;48.596;9.238;2023-03-19T11:51:33;98070.97;;;16.72;51.04
21824;BME280;11074;48.596;9.238;2023-03-19T11:54:26;98067.44;;;16.90;50.85
21824;BME280;11074;48.596;9.238;2023-03-19T11:57:11;98064.94;;;17.13;50.01
21824;BME280;11074;48.596;9.238;2023-03-19T12:00:00;98065.06;;;17.21;49.29
21824;BME280;11074;48.596;9.238;2023-03-19T12:05:30;98054.78;;;17.50;47.97
21824;BME280;11074;48.596;9.238;2023-03-19T12:08:18;98053.91;;;17.55;48.89
21824;BME280;11074;48.596;9.238;2023-03-19T12:11:23;98057.56;;;17.32;48.46
21824;BME280;11074;48.596;9.238;2023-03-19T12:20:06;98055.06;;;17.49;48.84
21824;BME280;11074;48.596;9.238;2023-03-19T12:23:20;98051.84;;;17.33;47.95
21824;BME280;11074;48.596;9.238;2023-03-19T12:31:14;98049.56;;;17.27;48.71
21824;BME280;11074;48.596;9.238;2023-03-19T12:33:45;98051.88;;;17.47;48.76
21824;BME280;11074;48.596;9.238;2023-03-19T12:36:21;98053.09;;;17.68;48.66
21824;BME280;11074;48.596;9.238;2023-03-19T12:39:02;98043.97;;;17.91;48.04
21824;BME280;11074;48.596;9.238;2023-03-19T12:41:31;98043.06;;;18.09;47.83
21824;BME280;11074;48.596;9.238;2023-03-19T12:44:08;98038.41;;;18.24;46.68
21824;BME280;11074;48.596;9.238;2023-03-19T12:49:28;98039.34;;;18.19;47.29
21824;BME280;11074;48.596;9.238;2023-03-19T12:52:02;98041.16;;;17.96;47.65
21824;BME280;11074;48.596;9.238;2023-03-19T12:54:39;98042.00;;;17.70;48.07
21824;BME280;11074;48.596;9.238;2023-03-19T12:57:20;98036.38;;;17.66;47.86
21824;BME280;11074;48.596;9.238;2023-03-19T13:00:15;98038.59;;;17.64;48.43
21824;BME280;11074;48.596;9.238;2023-03-19T13:05:46;98042.34;;;17.49;48.31
21824;BME280;11074;48.596;9.238;2023-03-19T13:08:30;98028.88;;;17.63;48.31
21824;BME280;11074;48.596;9.238;2023-03-19T13:10:58;98039.38;;;17.78;47.64
21824;BME280;11074;48.596;9.238;2023-03-19T13:13:44;98031.38;;;17.87;47.39
21824;BME280;11074;48.596;9.238;2023-03-19T13:16:41;98016.41;;;18.03;47.09
21824;BME280;11074;48.596;9.238;2023-03-19T13:19:31;98022.22;;;17.96;47.96
21824;BME280;11074;48.596;9.238;2023-03-19T13:22:08;98028.97;;;17.85;48.42
21824;BME280;11074;48.596;9.238;2023-03-19T13:24:38;98030.66;;;17.68;48.37
21824;BME280;11074;48.596;9.238;2023-03-19T13:27:18;98025.78;;;17.56;48.75
21824;BME280;11074;48.596;9.238;2023-03-19T13:32:42;98022.84;;;17.52;48.77
21824;BME280;11074;48.596;9.238;2023-03-19T13:38:23;98026.38;;;17.53;48.96
21824;BME280;11074;48.596;9.238;2023-03-19T13:40:56;98020.38;;;17.56;49.03
21824;BME280;11074;48.596;9.238;2023-03-19T13:48:48;98028.88;;;17.63;48.52
21824;BME280;11074;48.596;9.238;2023-03-19T13:56:20;98025.47;;;17.71;49.11
21824;BME280;11074;48.596;9.238;2023-03-19T13:59:22;98022.06;;;17.66;49.08
21824;BME280;11074;48.596;9.238;2023-03-19T14:01:49;98024.16;;;17.55;49.75
21824;BME280;11074;48.596;9.238;2023-03-19T14:04:18;98020.13;;;17.52;49.73
21824;BME280;11074;48.596;9.238;2023-03-19T14:06:57;98027.75;;;17.37;49.66
21824;BME280;11074;48.596;9.238;2023-03-19T14:09:40;98019.84;;;17.27;50.26
21824;BME280;11074;48.596;9.238;2023-03-19T14:17:30;98018.38;;;17.02;50.89
21824;BME280;11074;48.596;9.238;2023-03-19T14:29:01;98020.75;;;16.58;52.09
21824;BME280;11074;48.596;9.238;2023-03-19T14:31:53;98042.25;;;16.44;52.59
21824;BME280;11074;48.596;9.238;2023-03-19T14:39:32;98070.72;;;15.42;71.19
21824;BME280;11074;48.596;9.238;2023-03-19T14:42:25;98064.59;;;15.36;76.03
21824;BME280;11074;48.596;9.238;2023-03-19T14:45:16;98052.13;;;15.45;78.81